Time;durP1;ratioP1;P1;durP2;ratioP2;P2;SDS_P1;SDS_P2;PMS_P1;PMS_P2;Temp;Humidity;BMP_temperature;BMP_pressure;BME280_temperature;BME280_humidity;BME280_pressure;Samples;Min_cycle;Max_cycle;Signal;HPM_P1;HPM_P2
2022/06/12 00:01:31;;;;;;;5.00;4.50;;;19.20;70.70;19.70;97109.00;;;;5091721;28;20246;-88
2022/06/12 00:03:59;;;;;;;4.63;4.03;;;19.20;70.80;19.70;97112.00;;;;5090725;28;20688;-88
2022/06/12 00:06:26;;;;;;;4.77;4.37;;;19.20;70.90;19.70;97104.00;;;;5091547;28;20215;-87
2022/06/12 00:08:54;;;;;;;4.40;4.00;;;19.20;70.90;19.70;97103.00;;;;5091526;28;20555;-86
2022/06/12 00:11:22;;;;;;;5.17;4.33;;;19.20;70.90;19.60;97106.00;;;;5095438;28;20199;-88
2022/06/12 00:13:54;;;;;;;4.63;4.23;;;19.20;70.90;19.60;97102.00;;;;5093998;28;20645;-88
2022/06/12 00:16:23;;;;;;;4.33;4.03;;;19.10;71.00;19.60;97099.00;;;;5094369;28;20188;-89
2022/06/12 00:18:51;;;;;;;4.30;3.90;;;19.10;71.70;19.50;97103.00;;;;5095048;28;20227;-89
2022/06/12 00:21:19;;;;;;;4.80;4.50;;;19.00;70.90;19.50;97101.00;;;;5094891;28;20236;-88
2022/06/12 00:23:52;;;;;;;4.87;4.47;;;19.00;71.00;19.40;97107.00;;;;5094273;28;20276;-86
2022/06/12 00:26:23;;;;;;;4.67;4.20;;;19.00;71.20;19.40;97107.00;;;;5094721;28;20227;-86
2022/06/12 00:28:56;;;;;;;4.97;4.30;;;19.00;71.20;19.40;97105.00;;;;5094918;28;20191;-86
2022/06/12 00:31:25;;;;;;;4.27;3.97;;;18.90;71.30;19.40;97105.00;;;;5094745;28;20709;-87
2022/06/12 00:33:53;;;;;;;4.07;3.77;;;18.90;71.40;19.30;97110.00;;;;5093561;28;20318;-86
2022/06/12 00:36:20;;;;;;;4.17;3.87;;;18.90;71.40;19.30;97102.00;;;;5094546;28;20272;-85
2022/06/12 00:38:47;;;;;;;4.20;3.87;;;18.90;71.50;19.30;97108.00;;;;5094365;28;20196;-85
2022/06/12 00:41:15;;;;;;;4.30;4.00;;;18.80;71.50;19.20;97101.00;;;;5094886;28;20226;-86
2022/06/12 00:43:42;;;;;;;4.27;3.97;;;18.80;71.60;19.20;97100.00;;;;5093539;28;20303;-84
2022/06/12 00:46:42;;;;;;;4.40;4.10;;;18.80;71.60;19.20;97099.00;;;;5094294;28;20191;-86
2022/06/12 00:49:17;;;;;;;3.70;3.40;;;18.70;71.60;19.10;97097.00;;;;5094286;28;20251;-86
2022/06/12 00:51:48;;;;;;;4.37;4.03;;;18.70;71.50;19.10;97092.00;;;;5094582;28;20254;-86
2022/06/12 00:54:17;;;;;;;4.20;3.90;;;18.70;71.60;19.10;97087.00;;;;5093013;28;20317;-86
2022/06/12 00:56:50;;;;;;;4.10;3.70;;;18.60;71.60;19.10;97093.00;;;;5094298;28;20729;-86
2022/06/12 00:59:24;;;;;;;4.30;4.00;;;18.60;71.80;19.00;97082.00;;;;5094224;28;20375;-85
2022/06/12 01:01:54;;;;;;;4.30;3.90;;;18.60;71.90;19.00;97092.00;;;;5094349;28;20227;-85
2022/06/12 01:07:12;;;;;;;4.23;3.33;;;18.50;72.00;18.90;97084.00;;;;5088108;28;20224;-85
2022/06/12 01:09:44;;;;;;;3.87;3.57;;;18.50;72.10;18.90;97091.00;;;;5093636;28;20300;-85
2022/06/12 01:12:17;;;;;;;4.60;2.97;;;18.50;72.10;18.90;97084.00;;;;5094570;28;20180;-85
2022/06/12 01:14:51;;;;;;;3.77;3.57;;;18.40;72.00;18.80;97086.00;;;;5092509;28;20246;-87
2022/06/12 01:17:23;;;;;;;3.07;2.87;;;18.40;72.30;18.80;97084.00;;;;5093422;28;20203;-87
2022/06/12 01:19:55;;;;;;;2.90;2.70;;;18.30;72.40;18.80;97090.00;;;;5093686;28;20616;-86
2022/06/12 01:23:15;;;;;;;2.77;2.53;;;18.30;72.40;18.70;97081.00;;;;5092923;28;20226;-85
2022/06/12 01:26:17;;;;;;;2.83;2.63;;;18.30;72.60;18.70;97081.00;;;;5091783;28;20231;-85
2022/06/12 01:28:52;;;;;;;2.67;2.43;;;18.20;72.60;18.70;97083.00;;;;5093519;28;20635;-86
2022/06/12 01:31:36;;;;;;;2.47;2.27;;;18.20;72.50;18.70;97078.00;;;;5092497;28;20222;-85
2022/06/12 01:34:27;;;;;;;2.67;2.30;;;18.20;72.70;18.60;97087.00;;;;5086290;28;20302;-85
2022/06/12 01:37:12;;;;;;;2.70;2.53;;;18.20;72.60;18.60;97081.00;;;;5090421;28;20679;-85
2022/06/12 01:39:54;;;;;;;2.30;2.20;;;18.20;72.70;18.60;97084.00;;;;5093531;28;20203;-86
2022/06/12 01:42:31;;;;;;;2.40;2.30;;;18.20;72.70;18.60;97072.00;;;;5091436;28;20286;-85
2022/06/12 01:45:16;;;;;;;2.77;2.57;;;18.10;72.70;18.50;97082.00;;;;5072926;28;20207;-86
2022/06/12 01:47:55;;;;;;;2.67;2.47;;;18.10;73.00;18.50;97067.00;;;;5092335;28;20245;-84
2022/06/12 01:50:32;;;;;;;2.47;2.27;;;18.10;73.00;18.50;97074.00;;;;5095091;28;20221;-86
2022/06/12 01:53:09;;;;;;;2.40;2.30;;;18.10;72.90;18.50;97068.00;;;;5086053;28;20216;-84
2022/06/12 01:55:50;;;;;;;2.47;2.27;;;18.00;72.90;18.40;97071.00;;;;5105148;28;20194;-84
2022/06/12 01:58:29;;;;;;;2.60;2.50;;;18.00;73.00;18.40;97065.00;;;;5114235;28;20182;-83
2022/06/12 02:01:10;;;;;;;3.17;2.43;;;18.00;73.10;18.40;97069.00;;;;5101215;28;20199;-84
2022/06/12 02:03:46;;;;;;;2.10;2.00;;;18.00;73.00;18.40;97065.00;;;;5093554;28;20269;-84
2022/06/12 02:06:22;;;;;;;2.80;2.27;;;17.90;73.10;18.30;97066.00;;;;5093013;28;20292;-85
2022/06/12 02:08:57;;;;;;;2.30;2.10;;;17.90;73.20;18.30;97067.00;;;;5093831;28;20266;-84
2022/06/12 02:14:24;;;;;;;2.20;2.10;;;17.90;73.20;18.20;97060.00;;;;5093222;28;20284;-85
2022/06/12 02:16:59;;;;;;;2.60;2.40;;;17.80;73.20;18.20;97064.00;;;;5078496;28;20221;-85
2022/06/12 02:19:32;;;;;;;2.33;2.20;;;17.80;73.30;18.20;97063.00;;;;5073349;28;20268;-85
2022/06/12 02:22:09;;;;;;;2.53;2.03;;;17.80;73.30;18.20;97055.00;;;;5088740;28;20272;-85
2022/06/12 02:24:43;;;;;;;2.47;2.27;;;17.80;73.40;18.10;97067.00;;;;5093098;28;20231;-85
2022/06/12 02:27:15;;;;;;;2.10;2.00;;;17.70;73.40;18.10;97061.00;;;;5093981;28;20244;-85
2022/06/12 02:29:48;;;;;;;2.10;2.00;;;17.70;73.40;18.10;97059.00;;;;5092876;28;20231;-85
2022/06/12 02:32:23;;;;;;;2.33;2.13;;;17.70;73.50;18.10;97064.00;;;;5092750;28;20191;-85
2022/06/12 02:34:58;;;;;;;2.50;2.30;;;17.70;73.60;18.10;97062.00;;;;5078254;28;20749;-85
2022/06/12 02:37:34;;;;;;;2.27;2.17;;;17.70;73.60;18.10;97059.00;;;;5072928;28;20210;-85
2022/06/12 02:40:12;;;;;;;3.10;2.07;;;17.60;73.70;18.10;97052.00;;;;5079934;28;20624;-85
2022/06/12 02:42:45;;;;;;;2.60;2.40;;;17.60;73.80;18.10;97053.00;;;;5072898;28;20650;-85
2022/06/12 02:45:18;;;;;;;2.23;2.13;;;17.60;73.80;18.00;97056.00;;;;5072486;28;20713;-85
2022/06/12 02:47:49;;;;;;;2.00;1.90;;;17.60;73.90;18.00;97053.00;;;;5072834;28;20286;-85
2022/06/12 02:50:22;;;;;;;2.67;2.13;;;17.60;73.90;18.00;97052.00;;;;5086014;28;20219;-85
2022/06/12 02:52:59;;;;;;;2.20;2.10;;;17.60;73.90;18.00;97055.00;;;;5093161;28;20180;-85
2022/06/12 02:55:39;;;;;;;3.07;2.30;;;17.50;73.80;17.90;97052.00;;;;5091790;28;20672;-84
2022/06/12 02:58:17;;;;;;;2.50;2.30;;;17.50;73.80;17.90;97058.00;;;;5093197;28;20844;-85
2022/06/12 03:00:52;;;;;;;1.90;1.80;;;17.50;74.00;17.90;97059.00;;;;5092749;28;20249;-85
2022/06/12 03:03:27;;;;;;;2.17;2.00;;;17.50;73.90;17.90;97055.00;;;;5093076;28;20584;-85
2022/06/12 03:05:59;;;;;;;2.33;2.23;;;17.50;74.00;17.90;97061.00;;;;5092353;28;20626;-86
2022/06/12 03:08:30;;;;;;;2.40;2.20;;;17.40;74.00;17.80;97070.00;;;;5092605;28;20186;-85
2022/06/12 03:11:04;;;;;;;2.73;2.53;;;17.40;74.00;17.80;97059.00;;;;5084649;28;20276;-85
2022/06/12 03:13:33;;;;;;;2.50;2.30;;;17.40;74.20;17.80;97068.00;;;;5081559;28;20684;-85
2022/06/12 03:16:12;;;;;;;2.27;2.17;;;17.40;74.40;17.80;97066.00;;;;5095242;28;20201;-85
2022/06/12 03:18:48;;;;;;;2.43;2.30;;;17.40;74.60;17.80;97068.00;;;;5102432;28;20234;-85
2022/06/12 03:21:28;;;;;;;2.30;2.20;;;17.40;74.80;17.90;97074.00;;;;5083884;28;20651;-85
2022/06/12 03:24:30;;;;;;;2.30;2.10;;;17.40;74.90;17.80;97068.00;;;;5093388;28;20227;-86
2022/06/12 03:27:24;;;;;;;2.30;2.10;;;17.40;74.90;17.80;97073.00;;;;5078295;28;20725;-85
2022/06/12 03:30:06;;;;;;;1.83;1.73;;;17.40;74.60;17.80;97078.00;;;;5092516;28;20184;-85
2022/06/12 03:32:47;;;;;;;2.37;2.23;;;17.40;74.50;17.80;97081.00;;;;5090079;28;20196;-85
2022/06/12 03:35:31;;;;;;;2.40;2.20;;;17.40;74.50;17.80;97074.00;;;;5091546;28;20752;-85
2022/06/12 03:38:05;;;;;;;2.13;2.03;;;17.40;74.50;17.80;97076.00;;;;5085242;28;20191;-85
2022/06/12 03:40:45;;;;;;;2.70;2.50;;;17.40;74.50;17.80;97077.00;;;;5092378;28;20206;-85
2022/06/12 03:43:21;;;;;;;2.20;2.10;;;17.40;74.50;17.80;97079.00;;;;5092562;28;20239;-85
2022/06/12 03:46:00;;;;;;;3.07;2.07;;;17.40;74.60;17.80;97079.00;;;;5087147;28;20214;-85
2022/06/12 03:48:34;;;;;;;2.60;2.40;;;17.30;74.60;17.80;97083.00;;;;5085971;28;20227;-85
2022/06/12 03:51:15;;;;;;;2.53;2.40;;;17.30;74.80;17.80;97092.00;;;;5077251;28;20290;-85
2022/06/12 03:53:51;;;;;;;2.63;2.43;;;17.40;74.90;17.80;97089.00;;;;5081144;28;20216;-85
2022/06/12 03:59:22;;;;;;;2.13;2.03;;;17.30;74.80;17.80;97088.00;;;;5080493;28;20562;-85
2022/06/12 04:01:51;;;;;;;2.70;2.50;;;17.40;74.80;17.80;97095.00;;;;5095179;28;20191;-85
2022/06/12 04:04:24;;;;;;;2.30;2.20;;;17.40;74.80;17.80;97095.00;;;;5095203;28;20223;-85
2022/06/12 04:06:56;;;;;;;2.50;2.30;;;17.30;75.00;17.80;97093.00;;;;5095268;28;20223;-85
2022/06/12 04:09:28;;;;;;;2.83;2.60;;;17.30;75.00;17.80;97098.00;;;;5095666;28;20211;-86
2022/06/12 04:12:00;;;;;;;2.37;2.17;;;17.30;75.00;17.80;97098.00;;;;5090015;28;20295;-85
2022/06/12 04:14:33;;;;;;;2.50;2.30;;;17.30;75.00;17.80;97098.00;;;;5076973;28;20254;-85
2022/06/12 04:17:04;;;;;;;2.33;2.23;;;17.40;75.10;17.80;97093.00;;;;5094929;28;20595;-85
2022/06/12 04:19:58;;;;;;;2.87;2.67;;;17.40;75.30;17.80;97091.00;;;;5086934;28;20674;-86
2022/06/12 04:22:27;;;;;;;2.67;2.47;;;17.40;75.50;17.90;97087.00;;;;5095221;28;20275;-86
2022/06/12 04:25:05;;;;;;;3.30;2.40;;;17.40;75.70;17.90;97090.00;;;;5097463;28;20269;-85
2022/06/12 04:27:38;;;;;;;2.50;2.30;;;17.40;76.00;17.90;97097.00;;;;5094974;28;20219;-85
2022/06/12 04:30:18;;;;;;;2.67;2.47;;;17.40;76.00;18.00;97094.00;;;;5105479;28;20184;-85
2022/06/12 04:32:45;;;;;;;2.37;2.27;;;17.40;76.10;18.00;97093.00;;;;5095271;28;20230;-85
2022/06/12 04:35:13;;;;;;;2.30;2.20;;;17.50;76.10;18.00;97098.00;;;;5094522;28;20246;-85
2022/06/12 04:37:42;;;;;;;3.30;2.87;;;17.50;76.10;18.00;97090.00;;;;5095263;28;20279;-85
2022/06/12 04:40:25;;;;;;;2.90;2.70;;;17.50;76.20;18.00;97090.00;;;;5104291;28;20655;-85
2022/06/12 04:42:53;;;;;;;2.33;2.13;;;17.50;76.40;18.10;97091.00;;;;5094934;28;20274;-85
2022/06/12 04:45:21;;;;;;;2.50;2.30;;;17.60;76.30;18.10;97090.00;;;;5094990;28;20187;-85
2022/06/12 04:47:48;;;;;;;2.97;2.77;;;17.60;76.40;18.10;97087.00;;;;5094472;28;20238;-85
2022/06/12 04:50:17;;;;;;;3.27;3.07;;;17.60;76.50;18.20;97088.00;;;;5088935;28;20216;-85
2022/06/12 04:52:46;;;;;;;2.83;2.63;;;17.60;76.70;18.20;97085.00;;;;5074953;28;20627;-85
2022/06/12 04:55:13;;;;;;;3.00;2.80;;;17.70;76.90;18.20;97084.00;;;;5092766;28;20687;-85
2022/06/12 04:57:40;;;;;;;3.10;2.90;;;17.70;77.10;18.30;97083.00;;;;5087772;28;20284;-85
2022/06/12 05:00:09;;;;;;;3.37;2.87;;;17.70;77.10;18.30;97090.00;;;;5094632;28;20191;-85
2022/06/12 05:02:37;;;;;;;3.10;2.90;;;17.80;77.30;18.40;97080.00;;;;5094421;28;20257;-85
2022/06/12 05:05:04;;;;;;;3.27;2.90;;;17.80;77.50;18.50;97079.00;;;;5094050;28;20223;-85
2022/06/12 05:07:32;;;;;;;3.33;2.87;;;17.90;77.60;18.50;97080.00;;;;5093409;28;20241;-85
2022/06/12 05:10:00;;;;;;;3.37;3.07;;;17.90;77.70;18.60;97082.00;;;;5081185;28;20223;-85
2022/06/12 05:12:27;;;;;;;2.87;2.67;;;18.00;77.60;18.60;97079.00;;;;5094450;28;20722;-85
2022/06/12 05:14:54;;;;;;;3.63;2.70;;;18.00;77.60;18.70;97080.00;;;;5089765;28;20251;-85
2022/06/12 05:17:22;;;;;;;3.23;3.03;;;18.10;77.50;18.70;97074.00;;;;5082009;28;20231;-85
2022/06/12 05:19:50;;;;;;;2.57;2.47;;;18.10;77.50;18.80;97079.00;;;;5094014;28;20203;-85
2022/06/12 05:22:21;;;;;;;3.10;2.90;;;18.20;77.60;18.80;97083.00;;;;5094272;28;20206;-85
2022/06/12 05:24:50;;;;;;;2.87;2.67;;;18.30;77.70;18.90;97070.00;;;;5094186;28;20219;-85
2022/06/12 05:27:24;;;;;;;3.47;2.73;;;18.30;77.70;18.90;97086.00;;;;5094640;28;20217;-85
2022/06/12 05:29:53;;;;;;;3.67;2.70;;;18.40;77.70;19.00;97080.00;;;;5090976;28;20223;-85
2022/06/12 05:32:23;;;;;;;3.20;2.30;;;18.40;77.50;19.10;97077.00;;;;5093835;28;20223;-85
2022/06/12 05:34:53;;;;;;;2.30;2.10;;;18.50;77.40;19.10;97084.00;;;;5093668;28;20280;-85
2022/06/12 05:37:20;;;;;;;2.20;2.10;;;18.50;77.30;19.20;97080.00;;;;5093525;28;20736;-85
2022/06/12 05:39:48;;;;;;;2.53;2.33;;;18.60;77.50;19.30;97075.00;;;;5089142;28;20219;-85
2022/06/12 05:42:15;;;;;;;4.17;2.50;;;18.60;77.40;19.30;97082.00;;;;5082350;28;20281;-85
2022/06/12 05:44:44;;;;;;;2.23;2.07;;;18.70;77.30;19.40;97075.00;;;;5092711;28;20297;-85
2022/06/12 05:47:11;;;;;;;2.23;2.13;;;18.70;77.00;19.50;97079.00;;;;5093176;28;20332;-85
2022/06/12 05:49:38;;;;;;;2.30;2.10;;;18.90;77.10;19.50;97084.00;;;;5089649;28;20683;-85
2022/06/12 05:52:07;;;;;;;2.10;2.00;;;18.90;77.00;19.60;97078.00;;;;5087964;28;20305;-85
2022/06/12 05:54:34;;;;;;;2.23;1.63;;;19.00;77.00;19.70;97090.00;;;;5091061;28;20211;-85
2022/06/12 05:57:01;;;;;;;2.30;2.20;;;19.00;77.00;19.80;97089.00;;;;5092452;28;20203;-85
2022/06/12 05:59:28;;;;;;;2.00;1.90;;;19.10;76.80;19.80;97084.00;;;;5091162;28;20199;-85
2022/06/12 06:01:57;;;;;;;1.90;1.80;;;19.20;76.50;19.90;97083.00;;;;5093609;28;20230;-85
2022/06/12 06:04:24;;;;;;;1.90;1.80;;;19.30;76.40;20.00;97084.00;;;;5092174;28;20246;-85
2022/06/12 06:06:57;;;;;;;1.70;1.60;;;19.30;76.30;20.00;97089.00;;;;5092268;28;20714;-85
2022/06/12 06:09:25;;;;;;;1.90;1.80;;;19.40;76.30;20.10;97087.00;;;;5092764;28;21022;-85
2022/06/12 06:11:53;;;;;;;2.20;2.00;;;19.50;75.90;20.20;97075.00;;;;5073177;28;20659;-85
2022/06/12 06:14:21;;;;;;;1.70;1.60;;;19.60;75.80;20.30;97087.00;;;;5086952;28;20223;-85
2022/06/12 06:16:49;;;;;;;1.90;1.40;;;19.60;75.40;20.30;97090.00;;;;5090948;28;20195;-86
2022/06/12 06:19:18;;;;;;;1.80;1.70;;;19.70;75.20;20.40;97089.00;;;;5101040;28;20289;-85
2022/06/12 06:21:45;;;;;;;1.60;1.50;;;19.80;75.10;20.50;97093.00;;;;5102327;28;20206;-85
2022/06/12 06:24:13;;;;;;;1.53;1.43;;;19.90;75.10;20.60;97097.00;;;;5093143;28;20298;-84
2022/06/12 06:26:42;;;;;;;1.80;1.70;;;19.90;75.00;20.70;97096.00;;;;5092809;28;20205;-84
2022/06/12 06:29:09;;;;;;;1.83;1.73;;;20.00;74.90;20.80;97098.00;;;;5093108;28;20199;-85
2022/06/12 06:31:37;;;;;;;1.60;1.50;;;20.10;74.70;20.90;97096.00;;;;5086188;28;20258;-86
2022/06/12 06:34:05;;;;;;;2.10;1.70;;;20.20;74.60;21.00;97091.00;;;;5092826;28;20207;-86
2022/06/12 06:36:34;;;;;;;2.13;1.67;;;20.30;74.50;21.00;97094.00;;;;5078999;28;20299;-84
2022/06/12 06:39:01;;;;;;;2.03;1.93;;;20.30;74.20;21.10;97093.00;;;;5078032;28;20223;-85
2022/06/12 06:41:29;;;;;;;2.07;1.97;;;20.50;74.00;21.20;97095.00;;;;5093162;28;20191;-85
2022/06/12 06:46:41;;;;;;;1.90;1.67;;;20.60;73.90;21.50;97096.00;;;;5092864;28;20561;-86
2022/06/12 06:49:09;;;;;;;1.57;1.47;;;20.70;73.80;21.60;97097.00;;;;5098160;28;20222;-89
2022/06/12 06:51:38;;;;;;;1.90;1.70;;;20.80;73.50;21.70;97101.00;;;;5074514;28;20675;-85
2022/06/12 06:54:05;;;;;;;1.50;1.40;;;20.90;73.50;21.80;97100.00;;;;5090769;28;20239;-86
2022/06/12 06:56:33;;;;;;;1.80;1.70;;;21.10;73.60;21.90;97101.00;;;;5092348;28;20259;-84
2022/06/12 06:59:01;;;;;;;1.60;1.50;;;21.20;74.00;22.00;97103.00;;;;5092767;28;20227;-84
2022/06/12 07:01:28;;;;;;;1.90;1.57;;;21.30;73.80;22.20;97110.00;;;;5092706;28;20570;-85
2022/06/12 07:03:55;;;;;;;2.40;1.50;;;21.40;73.70;22.40;97097.00;;;;5092659;28;20269;-85
2022/06/12 07:06:24;;;;;;;2.47;1.80;;;21.60;73.90;22.60;97106.00;;;;5092591;28;20241;-85
2022/06/12 07:08:53;;;;;;;2.07;1.60;;;21.70;74.30;22.80;97101.00;;;;5090300;28;20268;-84
2022/06/12 07:11:21;;;;;;;1.57;1.47;;;21.90;74.50;23.00;97103.00;;;;5074939;28;20220;-84
2022/06/12 07:13:48;;;;;;;1.60;1.50;;;22.00;74.60;23.20;97103.00;;;;5089718;28;20251;-84
2022/06/12 07:16:15;;;;;;;1.60;1.50;;;22.20;74.80;23.40;97110.00;;;;5092539;28;20307;-86
2022/06/12 07:18:44;;;;;;;1.73;1.63;;;22.40;74.70;23.60;97112.00;;;;5091903;28;20635;-84
2022/06/12 07:21:12;;;;;;;3.30;2.00;;;22.60;75.20;23.80;97114.00;;;;5091143;28;20263;-84
2022/06/12 07:23:40;;;;;;;1.80;1.70;;;22.70;74.70;24.00;97111.00;;;;5077711;28;20627;-84
2022/06/12 07:26:17;;;;;;;1.57;1.50;;;22.90;74.30;24.30;97109.00;;;;5093977;28;20727;-84
2022/06/12 07:28:45;;;;;;;1.77;1.67;;;23.20;74.20;24.50;97107.00;;;;5096516;28;20274;-84
2022/06/12 07:31:13;;;;;;;2.03;1.70;;;23.40;74.10;24.80;97111.00;;;;5095804;28;20228;-85
2022/06/12 07:33:40;;;;;;;1.60;1.50;;;23.50;73.80;25.00;97109.00;;;;5096319;28;20219;-84
2022/06/12 07:36:11;;;;;;;1.60;1.50;;;23.70;72.90;25.20;97109.00;;;;5094599;28;20187;-84
2022/06/12 07:38:39;;;;;;;1.97;1.87;;;23.90;72.50;25.40;97116.00;;;;5095612;28;20223;-84
2022/06/12 07:41:13;;;;;;;1.87;1.77;;;24.10;72.00;25.60;97112.00;;;;5096165;28;20252;-84
2022/06/12 07:43:43;;;;;;;1.50;1.40;;;24.30;70.20;25.80;97111.00;;;;5095404;28;20250;-83
2022/06/12 07:46:14;;;;;;;1.70;1.60;;;24.50;70.40;26.00;97117.00;;;;5100368;28;20294;-84
2022/06/12 07:48:43;;;;;;;1.70;1.60;;;24.70;70.70;26.30;97114.00;;;;5078419;28;20241;-84
2022/06/12 07:51:15;;;;;;;1.77;1.67;;;24.80;70.30;26.50;97115.00;;;;5095580;28;20221;-85
2022/06/12 07:53:43;;;;;;;1.77;1.67;;;25.00;69.70;26.70;97110.00;;;;5086084;28;20449;-84
2022/06/12 07:56:14;;;;;;;2.03;1.93;;;25.20;69.70;26.90;97108.00;;;;5097394;28;20231;-84
2022/06/12 07:58:42;;;;;;;1.70;1.60;;;25.40;69.10;27.10;97109.00;;;;5087244;28;20242;-83
2022/06/12 08:01:13;;;;;;;2.57;1.60;;;25.60;69.00;27.30;97109.00;;;;5116289;28;20286;-84
2022/06/12 08:03:40;;;;;;;1.57;1.47;;;25.80;68.80;27.50;97110.00;;;;5112238;28;20303;-84
2022/06/12 08:06:08;;;;;;;1.53;1.43;;;25.90;68.90;27.70;97110.00;;;;5089343;28;20781;-83
2022/06/12 08:08:35;;;;;;;1.90;1.57;;;26.10;68.80;27.90;97105.00;;;;5095843;28;20207;-84
2022/06/12 08:11:03;;;;;;;1.70;1.60;;;26.30;67.80;28.10;97108.00;;;;5095781;28;20203;-84
2022/06/12 08:13:32;;;;;;;1.40;1.30;;;26.50;67.60;28.30;97114.00;;;;5094781;28;20258;-84
2022/06/12 08:16:00;;;;;;;1.60;1.50;;;26.60;67.80;28.60;97108.00;;;;5075459;28;20750;-83
2022/06/12 08:18:28;;;;;;;1.65;1.55;;;26.80;67.30;28.90;97119.00;;;;5091233;28;20218;-84
2022/06/12 08:21:07;;;;;;;1.50;1.40;;;27.00;67.00;29.20;97122.00;;;;5094872;28;20726;-84
2022/06/12 08:23:40;;;;;;;1.50;1.40;;;27.20;66.30;29.60;97123.00;;;;5092019;28;20254;-84
2022/06/12 08:26:13;;;;;;;1.45;1.35;;;27.40;65.20;30.00;97125.00;;;;5096615;28;20282;-84
2022/06/12 08:28:46;;;;;;;1.50;1.40;;;27.70;64.50;30.40;97122.00;;;;5092292;28;20184;-84
2022/06/12 08:31:19;;;;;;;1.42;1.33;;;28.00;65.00;30.70;97120.00;;;;5090572;28;20195;-84
2022/06/12 08:33:51;;;;;;;1.20;1.20;;;28.30;64.90;31.00;97116.00;;;;5095132;28;20219;-84
2022/06/12 08:36:21;;;;;;;1.13;1.13;;;28.50;63.90;31.20;97117.00;;;;5094924;28;20279;-84
2022/06/12 08:38:50;;;;;;;1.55;1.45;;;28.70;63.40;31.50;97119.00;;;;5095659;28;20576;-84
2022/06/12 08:41:25;;;;;;;1.17;1.17;;;29.00;62.60;31.60;97121.00;;;;5095278;28;20625;-84
2022/06/12 08:44:05;;;;;;;1.10;1.10;;;29.20;60.90;31.80;97122.00;;;;5094264;28;20229;-84
2022/06/12 08:46:42;;;;;;;1.10;1.10;;;29.40;59.60;31.90;97115.00;;;;5090498;28;20213;-84
2022/06/12 08:49:22;;;;;;;1.00;1.00;;;29.60;59.70;32.10;97116.00;;;;5076792;28;20179;-84
2022/06/12 08:52:00;;;;;;;1.20;1.20;;;29.80;59.50;32.30;97118.00;;;;5094990;28;20612;-83
2022/06/12 08:54:38;;;;;;;0.93;0.93;;;30.00;58.80;32.50;97117.00;;;;5085258;28;20247;-85
2022/06/12 08:57:11;;;;;;;1.00;1.00;;;30.10;58.20;32.80;97118.00;;;;5094209;28;20270;-84
2022/06/12 08:59:45;;;;;;;1.17;1.10;;;30.30;58.20;32.90;97114.00;;;;5074460;28;20269;-84
2022/06/12 09:02:21;;;;;;;2.65;1.10;;;30.50;57.00;33.10;97115.00;;;;5109554;28;20282;-85
2022/06/12 09:04:49;;;;;;;1.02;1.02;;;30.70;56.60;33.30;97114.00;;;;5084750;28;20564;-85
2022/06/12 09:07:27;;;;;;;1.02;1.00;;;30.90;57.10;33.40;97107.00;;;;5081593;28;20215;-84
2022/06/12 09:10:03;;;;;;;0.95;0.93;;;31.10;55.70;33.60;97108.00;;;;5086760;28;20694;-84
2022/06/12 09:12:40;;;;;;;1.10;1.10;;;31.40;55.70;33.80;97107.00;;;;5093548;28;20512;-85
2022/06/12 09:15:19;;;;;;;0.82;0.82;;;31.70;55.40;33.90;97101.00;;;;5089224;28;20211;-86
2022/06/12 09:17:57;;;;;;;1.55;1.40;;;31.90;54.70;34.00;97100.00;;;;5086298;28;20257;-85
2022/06/12 09:20:37;;;;;;;1.23;1.00;;;32.10;53.50;34.10;97101.00;;;;5088268;28;22079;-84
2022/06/12 09:23:22;;;;;;;1.00;1.00;;;32.30;53.30;34.30;97102.00;;;;5091481;28;20199;-84
2022/06/12 09:25:56;;;;;;;0.80;0.80;;;32.50;52.50;34.40;97099.00;;;;5093776;28;20230;-85
2022/06/12 09:28:44;;;;;;;1.13;1.02;;;32.60;52.10;34.50;97095.00;;;;5083372;28;20676;-84
2022/06/12 09:31:22;;;;;;;0.88;0.88;;;32.80;50.40;34.70;97095.00;;;;5096180;28;20221;-83
2022/06/12 09:34:02;;;;;;;0.80;0.80;;;33.00;50.60;34.90;97091.00;;;;5093263;28;20242;-83
2022/06/12 09:37:00;;;;;;;0.90;0.90;;;33.10;50.20;35.00;97092.00;;;;5099391;28;20184;-83
2022/06/12 09:39:50;;;;;;;0.65;0.60;;;33.30;48.80;35.20;97089.00;;;;5077013;28;20279;-84
2022/06/12 09:42:23;;;;;;;2.97;0.70;;;33.50;48.50;35.40;97081.00;;;;5085283;28;20231;-83
2022/06/12 09:44:54;;;;;;;0.70;0.63;;;33.70;49.20;35.60;97083.00;;;;5086464;28;20217;-83
2022/06/12 09:47:41;;;;;;;0.80;0.80;;;33.80;48.30;35.70;97087.00;;;;5094161;28;20268;-83
2022/06/12 09:50:17;;;;;;;1.00;0.90;;;34.00;47.10;35.80;97081.00;;;;5087716;28;20264;-83
2022/06/12 09:53:05;;;;;;;0.77;0.77;;;34.30;48.30;36.00;97086.00;;;;5093233;28;20644;-83
2022/06/12 09:55:40;;;;;;;1.13;0.85;;;34.50;47.50;36.10;97081.00;;;;5093907;28;20179;-83
2022/06/12 09:58:16;;;;;;;1.20;0.80;;;34.60;46.60;36.30;97090.00;;;;5090575;28;20661;-84
2022/06/12 10:00:50;;;;;;;0.90;0.90;;;34.80;47.10;36.40;97083.00;;;;5093592;28;20224;-82
2022/06/12 10:03:26;;;;;;;0.70;0.70;;;35.00;46.10;36.40;97080.00;;;;5094427;28;20215;-82
2022/06/12 10:06:01;;;;;;;0.95;0.90;;;35.10;46.40;36.40;97072.00;;;;5094960;28;20205;-82
2022/06/12 10:08:41;;;;;;;0.85;0.82;;;35.20;45.70;36.40;97064.00;;;;5092780;28;20199;-83
2022/06/12 10:11:15;;;;;;;6.13;2.40;;;35.40;44.00;36.40;97065.00;;;;5098323;28;20190;-84
2022/06/12 10:13:51;;;;;;;2.58;1.95;;;35.40;45.30;36.50;97065.00;;;;5094209;28;20227;-83
2022/06/12 10:16:24;;;;;;;1.77;1.10;;;35.40;44.30;36.40;97062.00;;;;5093344;28;20207;-82
2022/06/12 10:19:00;;;;;;;1.05;0.95;;;35.40;43.40;36.30;97059.00;;;;5094405;28;20685;-82
2022/06/12 10:21:33;;;;;;;0.80;0.80;;;35.40;42.00;36.20;97062.00;;;;5094270;28;20202;-83
2022/06/12 10:24:01;;;;;;;0.80;0.60;;;35.40;43.70;36.20;97059.00;;;;5094815;28;20229;-83
2022/06/12 10:26:33;;;;;;;0.98;0.80;;;35.40;43.60;36.10;97054.00;;;;5086261;28;20195;-83
2022/06/12 10:29:06;;;;;;;0.65;0.65;;;35.40;42.70;36.10;97055.00;;;;5093706;28;20191;-83
2022/06/12 10:31:45;;;;;;;1.20;0.70;;;35.40;43.80;36.10;97060.00;;;;5094090;28;20191;-83
2022/06/12 10:34:21;;;;;;;0.82;0.80;;;35.40;43.60;36.10;97051.00;;;;5093067;28;20268;-80
2022/06/12 10:36:49;;;;;;;1.13;0.70;;;35.40;41.80;36.20;97056.00;;;;5093456;28;20226;-81
2022/06/12 10:39:21;;;;;;;0.73;0.73;;;35.40;43.70;36.20;97052.00;;;;5090890;28;20219;-81
2022/06/12 10:41:53;;;;;;;0.63;0.63;;;35.50;42.00;36.10;97053.00;;;;5093120;28;20191;-81
2022/06/12 10:44:39;;;;;;;0.63;0.63;;;35.50;42.40;36.10;97046.00;;;;5092872;28;20268;-81
2022/06/12 10:47:27;;;;;;;0.90;0.77;;;35.60;42.70;36.20;97054.00;;;;5092389;28;20775;-81
2022/06/12 10:50:23;;;;;;;0.55;0.55;;;35.70;42.50;36.20;97040.00;;;;5085749;28;20180;-81
2022/06/12 10:52:58;;;;;;;2.00;0.80;;;35.80;40.10;36.00;97041.00;;;;5093256;28;20243;-81
2022/06/12 10:55:51;;;;;;;0.90;0.90;;;35.80;40.50;35.90;97037.00;;;;5091902;28;20691;-82
2022/06/12 10:59:03;;;;;;;0.55;0.55;;;35.70;40.40;35.80;97029.00;;;;5093292;28;20916;-82
2022/06/12 11:01:42;;;;;;;0.60;0.60;;;35.60;41.10;35.60;97033.00;;;;5093400;28;20194;-80
2022/06/12 11:04:25;;;;;;;0.60;0.60;;;35.40;41.10;35.50;97025.00;;;;5093497;28;20242;-80
2022/06/12 11:07:12;;;;;;;0.60;0.60;;;35.20;41.40;35.20;97018.00;;;;5093174;28;20195;-81
2022/06/12 11:10:01;;;;;;;2.55;0.82;;;35.00;40.10;35.00;97022.00;;;;5092442;28;21757;-81
2022/06/12 11:12:48;;;;;;;2.75;0.77;;;34.70;40.70;34.70;97018.00;;;;5105785;28;20226;-81
2022/06/12 11:15:45;;;;;;;;;;;;;;;;;;;;;
2022/06/12 11:18:25;;;;;;;1.13;0.55;;;34.20;40.40;34.20;97005.00;;;;5089654;28;20218;-81
2022/06/12 11:21:08;;;;;;;2.58;0.70;;;33.90;39.80;33.90;96990.00;;;;5093360;28;20557;-82
2022/06/12 11:24:11;;;;;;;0.70;0.60;;;33.60;40.40;33.60;96990.00;;;;5093841;28;20288;-81
2022/06/12 11:27:06;;;;;;;0.70;0.70;;;33.30;41.80;33.40;96991.00;;;;5078639;28;20194;-80
2022/06/12 11:30:03;;;;;;;1.65;1.02;;;33.10;41.40;33.20;96987.00;;;;5093188;28;20215;-80
2022/06/12 11:32:54;;;;;;;0.77;0.77;;;32.80;41.60;33.00;96989.00;;;;5072974;28;20204;-82
2022/06/12 11:35:39;;;;;;;2.22;0.80;;;32.60;42.10;32.90;96983.00;;;;5083498;28;20927;-80
2022/06/12 11:38:44;;;;;;;0.90;0.90;;;32.40;42.60;32.70;96982.00;;;;5086453;28;20187;-81